createdAt,value
2019-04-10T00:06:18.973Z,91.20
2019-04-10T00:11:43.191Z,91.40
2019-04-10T00:14:24.047Z,91.40
2019-04-10T00:17:04.807Z,91.30
2019-04-10T00:19:45.520Z,91.10
2019-04-10T00:22:26.335Z,90.90
2019-04-10T00:25:06.715Z,90.90
2019-04-10T00:27:47.175Z,90.90
2019-04-10T00:30:27.503Z,90.90
2019-04-10T00:33:08.217Z,91.00
2019-04-10T00:35:48.441Z,90.90
2019-04-10T00:38:16.121Z,91.00
2019-04-10T00:41:03.885Z,91.30
2019-04-10T00:43:52.139Z,91.40
2019-04-10T00:46:32.542Z,91.40
2019-04-10T00:49:13.494Z,91.70
2019-04-10T00:51:53.814Z,92.00
2019-04-10T00:54:33.809Z,91.80
2019-04-10T00:57:14.920Z,91.90
2019-04-10T00:59:56.815Z,91.80
2019-04-10T01:02:37.259Z,92.00
2019-04-10T01:05:17.355Z,92.10
2019-04-10T01:07:57.542Z,92.10
2019-04-10T01:10:38.750Z,92.30
2019-04-10T01:13:18.850Z,92.40
2019-04-10T01:15:58.921Z,92.60
2019-04-10T01:18:39.517Z,92.10
2019-04-10T01:21:19.984Z,92.10
2019-04-10T01:24:23.694Z,92.00
2019-04-10T01:27:03.493Z,91.80
2019-04-10T01:29:43.964Z,91.80
2019-04-10T01:32:24.538Z,92.20
2019-04-10T01:35:05.692Z,92.10
2019-04-10T01:37:52.088Z,92.00
2019-04-10T01:40:27.575Z,92.10
2019-04-10T01:43:12.821Z,92.10
2019-04-10T01:45:49.730Z,92.10
2019-04-10T01:48:30.165Z,92.00
2019-04-10T01:51:10.813Z,92.00
2019-04-10T01:53:50.863Z,92.10
2019-04-10T01:56:34.633Z,92.20
2019-04-10T01:59:13.849Z,92.40
2019-04-10T02:02:14.635Z,92.50
2019-04-10T02:04:57.134Z,92.40
2019-04-10T02:07:38.194Z,92.30
2019-04-10T02:10:18.837Z,92.40
2019-04-10T02:12:59.072Z,92.60
2019-04-10T02:15:39.685Z,92.40
2019-04-10T02:18:19.691Z,92.60
2019-04-10T02:20:59.746Z,92.50
2019-04-10T02:23:40.637Z,92.20
2019-04-10T02:26:21.323Z,92.30
2019-04-10T02:29:01.734Z,92.50
2019-04-10T02:31:41.957Z,92.50
2019-04-10T02:34:23.249Z,92.60
2019-04-10T02:37:03.338Z,92.40
2019-04-10T02:39:47.723Z,92.40
2019-04-10T02:42:26.620Z,92.40
2019-04-10T02:45:08.297Z,92.30
2019-04-10T02:47:48.507Z,92.20
2019-04-10T02:50:16.605Z,92.40
2019-04-10T02:53:25.625Z,92.90
2019-04-10T02:56:13.622Z,93.00
2019-04-10T02:58:56.520Z,93.10
2019-04-10T03:01:37.935Z,92.90
2019-04-10T03:04:18.424Z,93.30
2019-04-10T03:06:59.812Z,93.10
2019-04-10T03:09:54.859Z,93.20
2019-04-10T03:12:24.531Z,93.20
2019-04-10T03:15:08.598Z,93.00
2019-04-10T03:17:50.993Z,93.30
2019-04-10T03:20:32.101Z,93.20
2019-04-10T03:23:12.132Z,93.20
2019-04-10T03:25:53.031Z,93.20
2019-04-10T03:28:33.546Z,93.20
2019-04-10T03:31:15.740Z,93.00
2019-04-10T03:34:16.778Z,93.00
2019-04-10T03:36:57.978Z,93.10
2019-04-10T03:39:38.515Z,93.40
2019-04-10T03:42:18.947Z,93.30
2019-04-10T03:44:59.414Z,93.00
2019-04-10T03:47:39.733Z,92.80
2019-04-10T03:50:19.474Z,92.20
2019-04-10T03:53:00.184Z,92.10
2019-04-10T03:55:40.976Z,92.20
2019-04-10T03:58:21.308Z,92.80
2019-04-10T04:01:01.467Z,93.30
2019-04-10T04:03:42.582Z,93.50
2019-04-10T04:06:22.482Z,93.30
2019-04-10T04:12:04.483Z,93.40
2019-04-10T04:14:44.598Z,93.90
2019-04-10T04:17:24.599Z,94.50
2019-04-10T04:20:04.608Z,94.60
2019-04-10T04:22:45.984Z,94.90
2019-04-10T04:25:26.026Z,95.10
2019-04-10T04:28:06.677Z,94.90
2019-04-10T04:30:51.715Z,95.10
2019-04-10T04:33:30.002Z,95.30
2019-04-10T04:36:10.306Z,95.30
2019-04-10T04:38:51.403Z,95.00
2019-04-10T04:41:31.894Z,94.90
2019-04-10T04:44:12.378Z,94.90
2019-04-10T04:46:52.725Z,95.10
2019-04-10T04:49:33.605Z,95.30
2019-04-10T04:52:14.279Z,95.40
2019-04-10T04:54:55.243Z,95.70
2019-04-10T04:57:37.834Z,95.70
2019-04-10T05:00:17.418Z,95.90
2019-04-10T05:02:58.215Z,96.00
2019-04-10T05:05:39.130Z,96.10
2019-04-10T05:08:19.674Z,96.00
2019-04-10T05:11:00.163Z,95.90
2019-04-10T05:13:42.399Z,95.70
2019-04-10T05:16:22.838Z,95.70
2019-04-10T05:18:50.468Z,95.60
2019-04-10T05:21:37.565Z,95.60
2019-04-10T05:24:24.614Z,95.10
2019-04-10T05:27:05.716Z,95.00
2019-04-10T05:29:47.084Z,94.90
2019-04-10T05:32:27.378Z,94.90
2019-04-10T05:35:08.978Z,94.90
2019-04-10T05:37:49.967Z,95.20
2019-04-10T05:40:30.145Z,95.20
2019-04-10T05:43:10.062Z,95.50
2019-04-10T05:45:50.683Z,95.40
2019-04-10T05:48:31.592Z,95.60
2019-04-10T05:51:12.558Z,95.70
2019-04-10T05:53:53.688Z,95.70
2019-04-10T05:56:34.344Z,95.70
2019-04-10T05:59:14.685Z,96.10
2019-04-10T06:01:54.746Z,96.00
2019-04-10T06:04:35.679Z,94.60
2019-04-10T06:07:16.966Z,94.10
2019-04-10T06:10:01.994Z,94.00
2019-04-10T06:12:40.066Z,94.00
2019-04-10T06:15:21.059Z,94.20
2019-04-10T06:18:01.159Z,94.10
2019-04-10T06:20:41.761Z,94.10
2019-04-10T06:23:21.458Z,94.30
2019-04-10T06:26:03.434Z,94.30
2019-04-10T06:28:43.445Z,94.60
2019-04-10T06:31:23.353Z,94.30
2019-04-10T06:34:04.589Z,94.10
2019-04-10T06:36:45.919Z,94.00
2019-04-10T06:39:26.807Z,94.30
2019-04-10T06:42:06.720Z,94.30
2019-04-10T06:44:46.797Z,93.50
2019-04-10T06:47:26.849Z,93.50
2019-04-10T06:50:07.003Z,93.40
2019-04-10T06:52:47.191Z,93.10
2019-04-10T06:55:30.178Z,93.00
2019-04-10T06:58:10.207Z,93.10
2019-04-10T07:00:53.279Z,92.90
2019-04-10T07:03:46.943Z,93.10
2019-04-10T07:06:19.872Z,92.80
2019-04-10T07:08:57.157Z,92.10
2019-04-10T07:11:38.658Z,92.80
2019-04-10T07:14:18.967Z,93.10
2019-04-10T07:17:05.017Z,92.80
2019-04-10T07:19:43.661Z,92.60
2019-04-10T07:22:23.575Z,91.50
2019-04-10T07:25:04.726Z,92.20
2019-04-10T07:27:45.919Z,92.70
2019-04-10T07:30:26.713Z,93.20
2019-04-10T07:33:05.847Z,93.60
2019-04-10T07:35:55.163Z,93.50
2019-04-10T07:38:35.019Z,93.60
2019-04-10T07:41:21.227Z,93.50
2019-04-10T07:43:57.315Z,93.40
2019-04-10T07:46:38.215Z,93.30
2019-04-10T07:49:19.431Z,93.20
2019-04-10T07:52:01.918Z,93.10
2019-04-10T07:54:44.569Z,93.00
2019-04-10T07:57:24.554Z,92.90
2019-04-10T08:00:06.675Z,92.70
2019-04-10T08:02:46.989Z,92.90
2019-04-10T08:08:40.422Z,92.70
2019-04-10T08:11:20.407Z,92.80
2019-04-10T08:14:01.359Z,92.90
2019-04-10T08:16:41.608Z,93.00
2019-04-10T08:19:21.846Z,92.90
2019-04-10T08:22:01.751Z,93.40
2019-04-10T08:24:45.741Z,93.00
2019-04-10T08:27:25.612Z,92.80
2019-04-10T08:30:07.397Z,92.80
2019-04-10T08:32:57.065Z,92.30
2019-04-10T08:35:31.500Z,92.10
2019-04-10T08:38:11.489Z,92.30
2019-04-10T08:40:52.319Z,92.20
2019-04-10T08:43:32.557Z,92.20
2019-04-10T08:46:12.919Z,91.30
2019-04-10T08:48:52.493Z,90.90
2019-04-10T08:51:33.183Z,91.10
2019-04-10T08:54:14.116Z,90.90
2019-04-10T08:56:52.633Z,90.80
2019-04-10T08:59:40.212Z,90.90
2019-04-10T09:02:21.918Z,90.40
2019-04-10T09:05:01.740Z,90.20
2019-04-10T09:07:41.557Z,90.00
2019-04-10T09:10:22.647Z,90.00
2019-04-10T09:13:04.171Z,90.20
2019-04-10T09:15:44.034Z,90.10
2019-04-10T09:18:25.214Z,90.00
2019-04-10T09:21:05.502Z,89.80
2019-04-10T09:23:52.447Z,90.00
2019-04-10T09:26:28.538Z,90.00
2019-04-10T09:29:08.837Z,89.80
2019-04-10T09:31:50.244Z,90.40
2019-04-10T09:34:18.009Z,90.00
2019-04-10T09:37:06.003Z,90.20
2019-04-10T09:39:55.371Z,90.20
2019-04-10T09:42:36.577Z,89.90
2019-04-10T09:45:17.791Z,90.00
2019-04-10T09:47:57.937Z,89.70
2019-04-10T09:50:37.735Z,90.00
2019-04-10T09:53:19.029Z,89.90
2019-04-10T09:55:46.991Z,89.80
2019-04-10T09:58:34.361Z,89.70
2019-04-10T10:01:22.067Z,88.90
2019-04-10T10:03:50.901Z,88.50
2019-04-10T10:06:26.059Z,88.30
2019-04-10T10:09:08.384Z,88.40
2019-04-10T10:11:49.761Z,88.70
2019-04-10T10:14:31.927Z,88.80
2019-04-10T10:17:13.170Z,87.80
2019-04-10T10:19:53.847Z,86.70
2019-04-10T10:22:34.393Z,87.10
2019-04-10T10:25:15.228Z,86.20
2019-04-10T10:27:56.497Z,87.50
2019-04-10T10:33:50.030Z,87.40
2019-04-10T10:36:40.820Z,86.90
2019-04-10T10:42:13.865Z,86.50
2019-04-10T10:44:54.403Z,86.30
2019-04-10T10:47:34.285Z,85.90
2019-04-10T10:50:15.178Z,85.00
2019-04-10T10:52:55.615Z,83.30
2019-04-10T10:55:35.819Z,81.20
2019-04-10T10:58:15.517Z,80.80
2019-04-10T11:00:55.739Z,79.40
2019-04-10T11:03:35.649Z,79.40
2019-04-10T11:06:16.735Z,79.90
2019-04-10T11:08:57.856Z,79.90
2019-04-10T11:11:25.489Z,80.60
2019-04-10T11:14:13.224Z,80.90
2019-04-10T11:16:56.115Z,81.40
2019-04-10T11:19:35.487Z,80.20
2019-04-10T11:22:21.800Z,78.90
2019-04-10T11:24:58.121Z,79.40
2019-04-10T11:27:25.798Z,79.40
2019-04-10T11:30:13.574Z,79.50
2019-04-10T11:33:02.610Z,78.40
2019-04-10T11:35:43.935Z,78.30
2019-04-10T11:38:22.093Z,78.50
2019-04-10T11:40:52.071Z,78.40
2019-04-10T11:43:39.322Z,78.50
2019-04-10T11:46:08.116Z,78.10
2019-04-10T11:48:55.576Z,78.80
2019-04-10T11:51:46.152Z,77.90
2019-04-10T11:54:28.588Z,78.30
2019-04-10T11:57:09.952Z,78.90
2019-04-10T11:59:50.247Z,79.50
2019-04-10T12:02:32.097Z,79.20
2019-04-10T12:05:18.500Z,79.10
2019-04-10T12:13:19.929Z,79.80
2019-04-10T12:16:00.995Z,80.10
2019-04-10T12:18:41.163Z,80.40
2019-04-10T12:21:21.870Z,80.10
2019-04-10T12:24:01.692Z,80.40
2019-04-10T12:26:42.338Z,79.40
2019-04-10T12:29:22.573Z,79.90
2019-04-10T12:32:04.194Z,80.10
2019-04-10T12:34:44.506Z,80.20
2019-04-10T12:37:24.216Z,80.10
2019-04-10T12:40:05.491Z,80.60
2019-04-10T12:42:46.136Z,81.20
2019-04-10T12:45:26.432Z,81.40
2019-04-10T12:48:06.418Z,81.30
2019-04-10T12:50:47.461Z,81.20
2019-04-10T12:53:27.583Z,80.80
2019-04-10T12:55:57.747Z,80.60
2019-04-10T12:58:46.698Z,81.00
2019-04-10T13:01:28.956Z,81.00
2019-04-10T13:04:08.789Z,81.40
2019-04-10T13:06:51.484Z,80.80
2019-04-10T13:09:31.769Z,81.00
2019-04-10T13:12:13.177Z,81.00
2019-04-10T13:14:53.030Z,81.60
2019-04-10T13:17:20.699Z,82.10
2019-04-10T13:23:16.367Z,82.80
2019-04-10T13:26:01.796Z,82.80
2019-04-10T13:28:41.496Z,82.70
2019-04-10T13:31:21.487Z,83.10
2019-04-10T13:34:01.397Z,83.20
2019-04-10T13:36:42.198Z,83.60
2019-04-10T13:42:03.207Z,84.20
2019-04-10T13:44:42.831Z,83.70
2019-04-10T13:47:23.696Z,83.50
2019-04-10T13:50:04.263Z,83.50
2019-04-10T13:52:46.714Z,82.50
2019-04-10T13:55:28.356Z,82.40
2019-04-10T13:58:08.816Z,83.00
2019-04-10T14:00:49.764Z,83.50
2019-04-10T14:03:30.144Z,84.70
2019-04-10T14:06:11.637Z,85.40
2019-04-10T14:09:10.946Z,86.80
2019-04-10T14:11:21.532Z,86.90
2019-04-10T14:14:08.565Z,87.60
2019-04-10T14:16:48.870Z,88.40
2019-04-10T14:19:29.875Z,88.90
2019-04-10T14:22:09.948Z,89.80
2019-04-10T14:24:51.165Z,90.00
2019-04-10T14:27:32.225Z,90.20
2019-04-10T14:30:18.794Z,90.60
2019-04-10T14:32:59.313Z,90.80
2019-04-10T14:35:39.289Z,90.70
2019-04-10T14:38:19.372Z,90.60
2019-04-10T14:40:59.378Z,90.50
2019-04-10T14:43:39.744Z,90.70
2019-04-10T14:46:20.684Z,90.90
2019-04-10T14:49:00.723Z,90.80
2019-04-10T14:51:40.840Z,90.80
2019-04-10T14:54:21.717Z,90.50
2019-04-10T14:57:02.343Z,90.60
2019-04-10T14:59:42.945Z,91.00
2019-04-10T15:02:24.358Z,90.80
2019-04-10T15:04:53.026Z,91.10
2019-04-10T15:07:41.041Z,91.40
2019-04-10T15:10:20.689Z,91.60
2019-04-10T15:13:09.211Z,92.00
2019-04-10T15:15:44.812Z,92.30
2019-04-10T15:18:24.841Z,92.90
2019-04-10T15:21:04.941Z,93.50
2019-04-10T15:23:44.926Z,94.00
2019-04-10T15:26:25.954Z,94.30
2019-04-10T15:29:06.066Z,94.30
2019-04-10T15:31:46.265Z,94.20
2019-04-10T15:34:28.210Z,94.30
2019-04-10T15:37:08.891Z,94.20
2019-04-10T15:39:49.633Z,94.20
2019-04-10T15:42:30.215Z,94.20
2019-04-10T15:45:10.615Z,94.30
2019-04-10T15:47:54.157Z,94.10
2019-04-10T15:50:32.673Z,93.80
2019-04-10T15:53:00.288Z,93.60
2019-04-10T15:55:40.654Z,93.80
2019-04-10T15:58:21.523Z,93.80
2019-04-10T16:00:50.224Z,93.50
2019-04-10T16:03:38.688Z,93.90
2019-04-10T16:06:20.886Z,93.90
2019-04-10T16:09:01.062Z,93.60
2019-04-10T16:12:06.153Z,93.50
2019-04-10T16:14:46.667Z,93.70
2019-04-10T16:20:37.382Z,93.50
2019-04-10T16:23:21.846Z,93.20
2019-04-10T16:26:02.862Z,93.50
2019-04-10T16:28:43.087Z,93.90
2019-04-10T16:31:23.541Z,94.00
2019-04-10T16:34:05.125Z,94.20
2019-04-10T16:36:45.810Z,94.40
2019-04-10T16:39:24.317Z,94.60
2019-04-10T16:45:38.353Z,94.80
2019-04-10T16:48:18.916Z,94.70
2019-04-10T16:50:59.672Z,94.50
2019-04-10T16:53:39.747Z,94.50
2019-04-10T16:56:23.376Z,94.50
2019-04-10T16:59:03.279Z,94.40
2019-04-10T17:01:43.491Z,94.40
2019-04-10T17:04:23.527Z,94.60
2019-04-10T17:07:03.688Z,94.50
2019-04-10T17:09:43.872Z,94.60
2019-04-10T17:12:25.662Z,94.80
2019-04-10T17:15:06.167Z,95.00
2019-04-10T17:17:46.443Z,95.00
2019-04-10T17:20:27.033Z,95.10
2019-04-10T17:23:08.066Z,95.10
2019-04-10T17:25:48.756Z,95.20
2019-04-10T17:28:28.453Z,95.20
2019-04-10T17:31:10.942Z,95.60
2019-04-10T17:33:50.641Z,95.20
2019-04-10T17:39:43.885Z,94.90
2019-04-10T17:42:24.170Z,95.10
2019-04-10T17:45:04.602Z,95.20
2019-04-10T17:47:45.122Z,95.30
2019-04-10T17:50:25.650Z,95.30
2019-04-10T17:52:53.503Z,95.50
2019-04-10T17:55:41.884Z,95.40
2019-04-10T17:58:29.695Z,95.40
2019-04-10T18:01:13.092Z,95.50
2019-04-10T18:03:57.226Z,95.60
2019-04-10T18:06:35.459Z,95.80
2019-04-10T18:09:07.618Z,95.80
2019-04-10T18:11:54.661Z,96.00
2019-04-10T18:14:44.023Z,96.00
2019-04-10T18:17:24.926Z,96.00
2019-04-10T18:20:06.337Z,96.30
2019-04-10T18:22:46.866Z,96.90
2019-04-10T18:25:27.691Z,96.60
2019-04-10T18:27:55.402Z,96.80
2019-04-10T18:30:42.473Z,96.80
2019-04-10T18:33:30.750Z,96.90
2019-04-10T18:36:11.274Z,96.70
2019-04-10T18:38:51.505Z,96.80
2019-04-10T18:44:31.309Z,96.50
2019-04-10T18:47:11.405Z,96.80
2019-04-10T18:49:52.331Z,96.60
2019-04-10T18:52:33.104Z,96.50
2019-04-10T18:55:12.702Z,96.70
2019-04-10T18:57:52.978Z,96.90
2019-04-10T19:00:52.518Z,96.90
2019-04-10T19:03:56.873Z,97.10
2019-04-10T19:06:53.131Z,97.50
2019-04-10T19:09:36.844Z,97.40
2019-04-10T19:12:17.205Z,97.50
2019-04-10T19:14:58.307Z,97.30
2019-04-10T19:17:39.037Z,97.60
2019-04-10T19:20:20.569Z,97.90
2019-04-10T19:23:01.354Z,97.90
2019-04-10T19:25:30.239Z,98.10
2019-04-10T19:28:28.027Z,98.20
2019-04-10T19:31:11.061Z,98.10
2019-04-10T19:33:51.197Z,97.90
2019-04-10T19:36:34.297Z,97.90
2019-04-10T19:39:14.157Z,98.00
2019-04-10T19:41:55.632Z,98.10
2019-04-10T19:44:35.469Z,98.30
2019-04-10T19:47:16.233Z,98.20
2019-04-10T19:49:57.598Z,98.40
2019-04-10T19:52:38.370Z,98.50
2019-04-10T19:55:18.366Z,98.20
2019-04-10T20:00:58.986Z,97.80
2019-04-10T20:03:39.678Z,98.60
2019-04-10T20:06:22.108Z,98.30
2019-04-10T20:09:01.663Z,98.60
2019-04-10T20:11:46.292Z,98.60
2019-04-10T20:14:24.155Z,98.50
2019-04-10T20:17:05.949Z,98.40
2019-04-10T20:19:46.760Z,98.50
2019-04-10T20:22:28.227Z,98.40
2019-04-10T20:25:10.280Z,98.30
2019-04-10T20:27:50.290Z,98.50
2019-04-10T20:30:32.756Z,98.70
2019-04-10T20:33:14.483Z,98.60
2019-04-10T20:35:54.554Z,98.70
2019-04-10T20:38:34.905Z,98.40
2019-04-10T20:41:14.773Z,98.40
2019-04-10T20:43:55.386Z,98.60
2019-04-10T20:46:36.021Z,98.60
2019-04-10T20:49:16.295Z,98.70
2019-04-10T20:51:56.196Z,98.30
2019-04-10T20:54:37.101Z,98.50
2019-04-10T20:57:17.513Z,98.50
2019-04-10T20:59:57.742Z,98.50
2019-04-10T21:02:38.297Z,98.60
2019-04-10T21:05:19.766Z,98.60
2019-04-10T21:07:59.934Z,98.50
2019-04-10T21:10:40.881Z,98.30
2019-04-10T21:13:22.079Z,98.40
2019-04-10T21:16:02.968Z,98.40
2019-04-10T21:18:44.218Z,98.20
2019-04-10T21:21:24.646Z,98.70
2019-04-10T21:24:04.867Z,98.20
2019-04-10T21:26:44.889Z,98.00
2019-04-10T21:29:44.366Z,98.10
2019-04-10T21:35:29.317Z,97.90
2019-04-10T21:38:09.313Z,97.80
2019-04-10T21:40:51.812Z,97.60
2019-04-10T21:43:32.009Z,97.50
2019-04-10T21:46:12.299Z,97.40
2019-04-10T21:48:51.987Z,97.40
2019-04-10T21:51:33.477Z,97.30
2019-04-10T21:54:14.028Z,97.20
2019-04-10T21:56:55.503Z,96.90
2019-04-10T21:59:35.286Z,96.90
2019-04-10T22:02:15.590Z,97.00
2019-04-10T22:04:55.809Z,97.10
2019-04-10T22:07:55.185Z,97.10
2019-04-10T22:10:40.026Z,97.10
2019-04-10T22:13:20.109Z,97.00
2019-04-10T22:16:01.689Z,96.80
2019-04-10T22:18:41.605Z,96.80
2019-04-10T22:21:22.768Z,96.70
2019-04-10T22:24:03.053Z,96.40
2019-04-10T22:26:42.878Z,96.50
2019-04-10T22:29:23.093Z,96.50
2019-04-10T22:32:04.130Z,96.60
2019-04-10T22:34:45.011Z,96.60
2019-04-10T22:37:25.796Z,96.60
2019-04-10T22:40:06.632Z,96.50
2019-04-10T22:42:48.193Z,96.60
2019-04-10T22:45:29.325Z,96.50
2019-04-10T22:48:10.895Z,96.40
2019-04-10T22:50:39.714Z,96.40
2019-04-10T22:53:26.837Z,96.40
2019-04-10T22:56:07.258Z,96.50
2019-04-10T22:58:47.302Z,96.60
2019-04-10T23:01:27.557Z,96.70
2019-04-10T23:04:08.024Z,96.80
2019-04-10T23:06:49.310Z,96.70
2019-04-10T23:09:30.610Z,96.60
2019-04-10T23:12:10.589Z,96.70
2019-04-10T23:14:51.149Z,96.90
2019-04-10T23:17:32.544Z,97.10
2019-04-10T23:20:12.924Z,97.20
2019-04-10T23:22:52.957Z,97.10
2019-04-10T23:25:34.225Z,97.20
2019-04-10T23:31:27.864Z,95.50
2019-04-10T23:34:08.389Z,96.00
2019-04-10T23:36:48.654Z,95.90
2019-04-10T23:39:16.362Z,96.20
2019-04-10T23:42:04.881Z,96.20
2019-04-10T23:44:53.248Z,96.00
2019-04-10T23:47:34.086Z,96.10
2019-04-10T23:50:15.099Z,96.10
2019-04-10T23:52:54.051Z,96.40
2019-04-10T23:55:41.944Z,96.50
2019-04-10T23:58:24.223Z,96.50
